sensor_id;sensor_type;location;lat;lon;timestamp;temperature;humidity
9083;DHT22;4577;48.704;9.000;2024-03-08T00:00:46;8.10;66.40
9083;DHT22;4577;48.704;9.000;2024-03-08T00:05:38;7.70;65.10
9083;DHT22;4577;48.704;9.000;2024-03-08T00:08:05;7.70;64.40
9083;DHT22;4577;48.704;9.000;2024-03-08T00:10:31;7.60;64.50
9083;DHT22;4577;48.704;9.000;2024-03-08T00:12:57;7.60;64.60
9083;DHT22;4577;48.704;9.000;2024-03-08T00:15:23;7.40;64.90
9083;DHT22;4577;48.704;9.000;2024-03-08T00:17:49;7.80;64.70
9083;DHT22;4577;48.704;9.000;2024-03-08T00:20:15;7.70;63.70
9083;DHT22;4577;48.704;9.000;2024-03-08T00:22:43;7.70;64.40
9083;DHT22;4577;48.704;9.000;2024-03-08T00:25:09;7.40;64.10
9083;DHT22;4577;48.704;9.000;2024-03-08T00:27:35;7.40;64.30
9083;DHT22;4577;48.704;9.000;2024-03-08T00:30:01;7.40;64.60
9083;DHT22;4577;48.704;9.000;2024-03-08T00:32:27;7.30;64.50
9083;DHT22;4577;48.704;9.000;2024-03-08T00:34:56;7.20;64.80
9083;DHT22;4577;48.704;9.000;2024-03-08T00:37:21;7.20;64.60
9083;DHT22;4577;48.704;9.000;2024-03-08T00:39:50;7.10;64.60
9083;DHT22;4577;48.704;9.000;2024-03-08T00:42:19;7.10;64.90
9083;DHT22;4577;48.704;9.000;2024-03-08T00:44:46;7.30;64.90
9083;DHT22;4577;48.704;9.000;2024-03-08T00:49:38;7.60;63.40
9083;DHT22;4577;48.704;9.000;2024-03-08T00:52:05;7.30;63.70
9083;DHT22;4577;48.704;9.000;2024-03-08T00:54:34;7.30;63.90
9083;DHT22;4577;48.704;9.000;2024-03-08T00:57:01;7.10;64.00
9083;DHT22;4577;48.704;9.000;2024-03-08T00:59:29;7.30;64.00
9083;DHT22;4577;48.704;9.000;2024-03-08T01:04:20;7.10;63.60
9083;DHT22;4577;48.704;9.000;2024-03-08T01:06:48;7.00;64.00
9083;DHT22;4577;48.704;9.000;2024-03-08T01:09:14;7.30;63.90
9083;DHT22;4577;48.704;9.000;2024-03-08T01:14:07;7.20;63.70
9083;DHT22;4577;48.704;9.000;2024-03-08T01:16:32;7.10;63.50
9083;DHT22;4577;48.704;9.000;2024-03-08T01:19:01;7.00;64.00
9083;DHT22;4577;48.704;9.000;2024-03-08T01:21:28;6.90;64.10
9083;DHT22;4577;48.704;9.000;2024-03-08T01:26:20;6.90;63.90
9083;DHT22;4577;48.704;9.000;2024-03-08T01:28:46;7.00;63.60
9083;DHT22;4577;48.704;9.000;2024-03-08T01:31:11;7.10;63.50
9083;DHT22;4577;48.704;9.000;2024-03-08T01:33:37;6.80;63.70
9083;DHT22;4577;48.704;9.000;2024-03-08T01:36:03;6.80;63.80
9083;DHT22;4577;48.704;9.000;2024-03-08T01:38:29;7.10;63.70
9083;DHT22;4577;48.704;9.000;2024-03-08T01:40:54;6.90;62.80
9083;DHT22;4577;48.704;9.000;2024-03-08T01:43:27;6.80;63.80
9083;DHT22;4577;48.704;9.000;2024-03-08T01:45:59;6.80;63.70
9083;DHT22;4577;48.704;9.000;2024-03-08T01:50:51;6.90;63.50
9083;DHT22;4577;48.704;9.000;2024-03-08T01:53:19;6.60;63.60
9083;DHT22;4577;48.704;9.000;2024-03-08T01:55:47;6.60;64.00
9083;DHT22;4577;48.704;9.000;2024-03-08T01:58:13;6.70;63.70
9083;DHT22;4577;48.704;9.000;2024-03-08T02:00:44;6.50;64.20
9083;DHT22;4577;48.704;9.000;2024-03-08T02:05:40;6.60;63.90
9083;DHT22;4577;48.704;9.000;2024-03-08T02:08:07;6.70;63.30
9083;DHT22;4577;48.704;9.000;2024-03-08T02:10:33;6.70;63.80
9083;DHT22;4577;48.704;9.000;2024-03-08T02:13:01;6.50;64.10
9083;DHT22;4577;48.704;9.000;2024-03-08T02:15:54;6.50;64.10
9083;DHT22;4577;48.704;9.000;2024-03-08T02:18:21;6.20;64.10
9083;DHT22;4577;48.704;9.000;2024-03-08T02:20:49;6.40;64.30
9083;DHT22;4577;48.704;9.000;2024-03-08T02:23:14;6.60;63.40
9083;DHT22;4577;48.704;9.000;2024-03-08T02:25:40;6.00;63.20
9083;DHT22;4577;48.704;9.000;2024-03-08T02:28:12;6.40;64.00
9083;DHT22;4577;48.704;9.000;2024-03-08T02:30:38;6.20;63.90
9083;DHT22;4577;48.704;9.000;2024-03-08T02:33:05;6.60;63.50
9083;DHT22;4577;48.704;9.000;2024-03-08T02:35:31;8.20;64.90
9083;DHT22;4577;48.704;9.000;2024-03-08T02:40:24;6.90;62.60
9083;DHT22;4577;48.704;9.000;2024-03-08T02:45:15;6.40;63.10
9083;DHT22;4577;48.704;9.000;2024-03-08T02:50:07;6.60;62.00
9083;DHT22;4577;48.704;9.000;2024-03-08T02:52:37;6.40;63.00
9083;DHT22;4577;48.704;9.000;2024-03-08T02:57:31;6.60;61.80
9083;DHT22;4577;48.704;9.000;2024-03-08T02:59:57;6.70;62.70
9083;DHT22;4577;48.704;9.000;2024-03-08T03:02:25;6.60;62.40
9083;DHT22;4577;48.704;9.000;2024-03-08T03:04:52;6.80;61.70
9083;DHT22;4577;48.704;9.000;2024-03-08T03:07:18;6.50;62.20
9083;DHT22;4577;48.704;9.000;2024-03-08T03:12:10;6.40;62.10
9083;DHT22;4577;48.704;9.000;2024-03-08T03:14:36;6.40;61.60
9083;DHT22;4577;48.704;9.000;2024-03-08T03:17:04;6.30;62.50
9083;DHT22;4577;48.704;9.000;2024-03-08T03:19:30;6.90;62.30
9083;DHT22;4577;48.704;9.000;2024-03-08T03:21:56;6.20;62.50
9083;DHT22;4577;48.704;9.000;2024-03-08T03:29:15;6.30;62.70
9083;DHT22;4577;48.704;9.000;2024-03-08T03:31:42;6.20;62.40
9083;DHT22;4577;48.704;9.000;2024-03-08T03:34:08;6.10;62.00
9083;DHT22;4577;48.704;9.000;2024-03-08T03:36:34;6.50;61.50
9083;DHT22;4577;48.704;9.000;2024-03-08T03:39:01;6.40;61.40
9083;DHT22;4577;48.704;9.000;2024-03-08T03:41:37;6.50;61.70
9083;DHT22;4577;48.704;9.000;2024-03-08T03:44:04;6.30;62.70
9083;DHT22;4577;48.704;9.000;2024-03-08T03:46:32;6.20;62.40
9083;DHT22;4577;48.704;9.000;2024-03-08T03:48:58;6.00;62.60
9083;DHT22;4577;48.704;9.000;2024-03-08T03:51:24;6.00;62.20
9083;DHT22;4577;48.704;9.000;2024-03-08T03:56:15;6.50;62.40
9083;DHT22;4577;48.704;9.000;2024-03-08T03:58:41;6.00;61.70
9083;DHT22;4577;48.704;9.000;2024-03-08T04:01:08;6.20;62.10
9083;DHT22;4577;48.704;9.000;2024-03-08T04:03:35;5.90;62.30
9083;DHT22;4577;48.704;9.000;2024-03-08T04:08:27;6.20;61.20
9083;DHT22;4577;48.704;9.000;2024-03-08T04:10:53;6.20;61.40
9083;DHT22;4577;48.704;9.000;2024-03-08T04:13:19;6.00;62.30
9083;DHT22;4577;48.704;9.000;2024-03-08T04:15:46;6.00;62.10
9083;DHT22;4577;48.704;9.000;2024-03-08T04:18:14;6.10;61.50
9083;DHT22;4577;48.704;9.000;2024-03-08T04:20:39;6.60;62.80
9083;DHT22;4577;48.704;9.000;2024-03-08T04:23:06;6.00;62.50
9083;DHT22;4577;48.704;9.000;2024-03-08T04:25:31;6.00;62.40
9083;DHT22;4577;48.704;9.000;2024-03-08T04:27:57;6.20;61.70
9083;DHT22;4577;48.704;9.000;2024-03-08T04:32:50;5.90;61.40
9083;DHT22;4577;48.704;9.000;2024-03-08T04:40:08;6.10;62.10
9083;DHT22;4577;48.704;9.000;2024-03-08T04:42:34;5.70;62.70
9083;DHT22;4577;48.704;9.000;2024-03-08T04:45:00;5.80;62.10
9083;DHT22;4577;48.704;9.000;2024-03-08T04:47:26;6.00;61.80
9083;DHT22;4577;48.704;9.000;2024-03-08T04:49:52;6.00;61.70
9083;DHT22;4577;48.704;9.000;2024-03-08T04:52:18;5.80;62.10
9083;DHT22;4577;48.704;9.000;2024-03-08T04:54:44;6.20;63.20
9083;DHT22;4577;48.704;9.000;2024-03-08T04:57:12;5.50;62.60
9083;DHT22;4577;48.704;9.000;2024-03-08T04:59:38;5.70;63.00
9083;DHT22;4577;48.704;9.000;2024-03-08T05:02:04;5.50;62.80
9083;DHT22;4577;48.704;9.000;2024-03-08T05:04:29;5.50;63.40
9083;DHT22;4577;48.704;9.000;2024-03-08T05:11:48;5.40;63.90
9083;DHT22;4577;48.704;9.000;2024-03-08T05:14:14;5.70;62.50
9083;DHT22;4577;48.704;9.000;2024-03-08T05:16:45;5.70;62.50
9083;DHT22;4577;48.704;9.000;2024-03-08T05:19:18;5.70;62.40
9083;DHT22;4577;48.704;9.000;2024-03-08T05:21:44;5.60;62.90
9083;DHT22;4577;48.704;9.000;2024-03-08T05:24:10;5.50;63.00
9083;DHT22;4577;48.704;9.000;2024-03-08T05:26:36;6.30;63.00
9083;DHT22;4577;48.704;9.000;2024-03-08T05:29:05;5.40;62.70
9083;DHT22;4577;48.704;9.000;2024-03-08T05:31:43;5.40;62.90
9083;DHT22;4577;48.704;9.000;2024-03-08T05:34:10;5.70;62.10
9083;DHT22;4577;48.704;9.000;2024-03-08T05:36:36;6.20;63.00
9083;DHT22;4577;48.704;9.000;2024-03-08T05:41:31;5.90;63.00
9083;DHT22;4577;48.704;9.000;2024-03-08T05:48:49;5.30;63.00
9083;DHT22;4577;48.704;9.000;2024-03-08T05:51:15;5.30;63.50
9083;DHT22;4577;48.704;9.000;2024-03-08T05:53:40;5.60;63.60
9083;DHT22;4577;48.704;9.000;2024-03-08T05:56:06;5.10;63.50
9083;DHT22;4577;48.704;9.000;2024-03-08T05:58:32;5.40;64.60
9083;DHT22;4577;48.704;9.000;2024-03-08T06:00:58;4.90;63.20
9083;DHT22;4577;48.704;9.000;2024-03-08T06:03:23;5.30;63.40
9083;DHT22;4577;48.704;9.000;2024-03-08T06:05:53;5.30;63.40
9083;DHT22;4577;48.704;9.000;2024-03-08T06:08:18;5.50;63.00
9083;DHT22;4577;48.704;9.000;2024-03-08T06:10:44;5.60;62.50
9083;DHT22;4577;48.704;9.000;2024-03-08T06:13:10;5.40;63.40
9083;DHT22;4577;48.704;9.000;2024-03-08T06:15:37;5.60;63.70
9083;DHT22;4577;48.704;9.000;2024-03-08T06:18:03;5.40;63.30
9083;DHT22;4577;48.704;9.000;2024-03-08T06:25:23;4.70;63.90
9083;DHT22;4577;48.704;9.000;2024-03-08T06:32:41;4.90;63.20
9083;DHT22;4577;48.704;9.000;2024-03-08T06:35:08;5.30;64.10
9083;DHT22;4577;48.704;9.000;2024-03-08T06:37:35;5.40;64.70
9083;DHT22;4577;48.704;9.000;2024-03-08T06:40:02;5.70;64.90
9083;DHT22;4577;48.704;9.000;2024-03-08T06:47:31;5.80;63.30
9083;DHT22;4577;48.704;9.000;2024-03-08T06:49:57;5.40;64.40
9083;DHT22;4577;48.704;9.000;2024-03-08T06:52:23;5.40;63.80
9083;DHT22;4577;48.704;9.000;2024-03-08T06:54:49;5.60;64.70
9083;DHT22;4577;48.704;9.000;2024-03-08T07:07:06;5.60;65.00
9083;DHT22;4577;48.704;9.000;2024-03-08T07:09:38;5.70;64.30
9083;DHT22;4577;48.704;9.000;2024-03-08T07:14:30;5.60;64.90
9083;DHT22;4577;48.704;9.000;2024-03-08T07:21:49;5.40;64.60
9083;DHT22;4577;48.704;9.000;2024-03-08T07:26:58;6.00;64.50
9083;DHT22;4577;48.704;9.000;2024-03-08T07:34:27;5.70;64.60
9083;DHT22;4577;48.704;9.000;2024-03-08T07:36:55;5.70;65.20
9083;DHT22;4577;48.704;9.000;2024-03-08T07:39:21;6.20;64.60
9083;DHT22;4577;48.704;9.000;2024-03-08T07:41:49;5.80;64.90
9083;DHT22;4577;48.704;9.000;2024-03-08T07:44:20;5.80;65.10
9083;DHT22;4577;48.704;9.000;2024-03-08T07:46:46;5.80;64.80
9083;DHT22;4577;48.704;9.000;2024-03-08T07:58:58;5.90;64.50
9083;DHT22;4577;48.704;9.000;2024-03-08T08:01:24;5.80;64.80
9083;DHT22;4577;48.704;9.000;2024-03-08T08:03:50;5.90;64.90
9083;DHT22;4577;48.704;9.000;2024-03-08T08:06:16;5.90;64.60
9083;DHT22;4577;48.704;9.000;2024-03-08T08:08:42;6.00;64.90
9083;DHT22;4577;48.704;9.000;2024-03-08T08:11:08;6.30;64.40
9083;DHT22;4577;48.704;9.000;2024-03-08T08:13:34;6.30;64.20
9083;DHT22;4577;48.704;9.000;2024-03-08T08:16:02;6.20;63.70
9083;DHT22;4577;48.704;9.000;2024-03-08T08:18:28;6.10;64.00
9083;DHT22;4577;48.704;9.000;2024-03-08T08:23:21;5.90;64.00
9083;DHT22;4577;48.704;9.000;2024-03-08T08:25:47;6.00;63.50
9083;DHT22;4577;48.704;9.000;2024-03-08T08:28:16;6.10;63.40
9083;DHT22;4577;48.704;9.000;2024-03-08T08:30:43;6.10;64.00
9083;DHT22;4577;48.704;9.000;2024-03-08T08:33:09;6.10;64.00
9083;DHT22;4577;48.704;9.000;2024-03-08T08:35:36;6.20;64.00
9083;DHT22;4577;48.704;9.000;2024-03-08T08:38:03;5.90;63.70
9083;DHT22;4577;48.704;9.000;2024-03-08T08:40:29;6.00;64.20
9083;DHT22;4577;48.704;9.000;2024-03-08T08:42:56;6.00;63.50
9083;DHT22;4577;48.704;9.000;2024-03-08T08:45:25;6.10;64.20
9083;DHT22;4577;48.704;9.000;2024-03-08T08:47:51;5.80;63.40
9083;DHT22;4577;48.704;9.000;2024-03-08T08:52:56;5.60;65.30
9083;DHT22;4577;48.704;9.000;2024-03-08T08:55:22;5.60;65.60
9083;DHT22;4577;48.704;9.000;2024-03-08T08:57:51;6.00;64.80
9083;DHT22;4577;48.704;9.000;2024-03-08T09:00:20;5.70;63.60
9083;DHT22;4577;48.704;9.000;2024-03-08T09:05:16;5.40;64.00
9083;DHT22;4577;48.704;9.000;2024-03-08T09:07:45;5.20;65.10
9083;DHT22;4577;48.704;9.000;2024-03-08T09:12:40;5.70;64.40
9083;DHT22;4577;48.704;9.000;2024-03-08T09:15:06;5.90;64.10
9083;DHT22;4577;48.704;9.000;2024-03-08T09:17:37;5.90;64.30
9083;DHT22;4577;48.704;9.000;2024-03-08T09:20:07;5.80;64.20
9083;DHT22;4577;48.704;9.000;2024-03-08T09:22:32;5.50;64.70
9083;DHT22;4577;48.704;9.000;2024-03-08T09:24:58;6.00;64.60
9083;DHT22;4577;48.704;9.000;2024-03-08T09:39:35;6.30;63.10
9083;DHT22;4577;48.704;9.000;2024-03-08T09:42:01;6.30;63.80
9083;DHT22;4577;48.704;9.000;2024-03-08T09:46:55;6.00;63.70
9083;DHT22;4577;48.704;9.000;2024-03-08T09:51:47;6.20;63.60
9083;DHT22;4577;48.704;9.000;2024-03-08T09:54:13;6.20;63.30
9083;DHT22;4577;48.704;9.000;2024-03-08T09:56:43;6.20;64.30
9083;DHT22;4577;48.704;9.000;2024-03-08T09:59:10;6.10;64.60
9083;DHT22;4577;48.704;9.000;2024-03-08T10:04:07;6.00;66.20
9083;DHT22;4577;48.704;9.000;2024-03-08T10:11:28;6.60;63.70
9083;DHT22;4577;48.704;9.000;2024-03-08T10:13:54;6.70;64.10
9083;DHT22;4577;48.704;9.000;2024-03-08T10:16:20;6.70;63.80
9083;DHT22;4577;48.704;9.000;2024-03-08T10:18:47;6.80;64.10
9083;DHT22;4577;48.704;9.000;2024-03-08T10:26:17;6.80;63.70
9083;DHT22;4577;48.704;9.000;2024-03-08T10:28:47;6.90;63.70
9083;DHT22;4577;48.704;9.000;2024-03-08T10:31:16;7.00;63.10
9083;DHT22;4577;48.704;9.000;2024-03-08T10:36:10;6.80;63.70
9083;DHT22;4577;48.704;9.000;2024-03-08T10:38:38;6.80;62.90
9083;DHT22;4577;48.704;9.000;2024-03-08T10:41:09;6.90;63.00
9083;DHT22;4577;48.704;9.000;2024-03-08T10:46:54;6.70;63.70
9083;DHT22;4577;48.704;9.000;2024-03-08T10:49:38;7.00;63.40
9083;DHT22;4577;48.704;9.000;2024-03-08T10:52:05;7.20;63.40
9083;DHT22;4577;48.704;9.000;2024-03-08T10:54:34;7.20;63.10
9083;DHT22;4577;48.704;9.000;2024-03-08T10:57:05;6.80;63.70
9083;DHT22;4577;48.704;9.000;2024-03-08T10:59:32;7.10;63.60
9083;DHT22;4577;48.704;9.000;2024-03-08T11:02:00;7.30;63.10
9083;DHT22;4577;48.704;9.000;2024-03-08T11:07:03;7.20;62.70
9083;DHT22;4577;48.704;9.000;2024-03-08T11:09:38;7.40;62.80
9083;DHT22;4577;48.704;9.000;2024-03-08T11:12:26;7.50;63.20
9083;DHT22;4577;48.704;9.000;2024-03-08T11:14:56;7.50;63.10
9083;DHT22;4577;48.704;9.000;2024-03-08T11:19:56;7.40;63.40
9083;DHT22;4577;48.704;9.000;2024-03-08T11:22:28;7.60;63.30
9083;DHT22;4577;48.704;9.000;2024-03-08T11:25:08;7.60;62.60
9083;DHT22;4577;48.704;9.000;2024-03-08T11:27:38;7.50;62.30
9083;DHT22;4577;48.704;9.000;2024-03-08T11:30:08;7.30;62.60
9083;DHT22;4577;48.704;9.000;2024-03-08T11:32:46;7.20;63.30
9083;DHT22;4577;48.704;9.000;2024-03-08T11:35:20;7.30;62.80
9083;DHT22;4577;48.704;9.000;2024-03-08T11:37:46;7.40;62.60
9083;DHT22;4577;48.704;9.000;2024-03-08T11:40:14;7.60;62.60
9083;DHT22;4577;48.704;9.000;2024-03-08T11:42:44;7.50;62.80
9083;DHT22;4577;48.704;9.000;2024-03-08T11:45:12;7.70;63.20
9083;DHT22;4577;48.704;9.000;2024-03-08T11:47:41;8.00;62.50
9083;DHT22;4577;48.704;9.000;2024-03-08T11:50:07;7.80;62.60
9083;DHT22;4577;48.704;9.000;2024-03-08T11:52:37;7.80;62.70
9083;DHT22;4577;48.704;9.000;2024-03-08T11:55:04;8.00;62.80
9083;DHT22;4577;48.704;9.000;2024-03-08T11:57:31;8.20;63.10
9083;DHT22;4577;48.704;9.000;2024-03-08T11:59:58;8.40;62.80
9083;DHT22;4577;48.704;9.000;2024-03-08T12:02:32;8.40;62.20
9083;DHT22;4577;48.704;9.000;2024-03-08T12:05:01;8.30;62.00
9083;DHT22;4577;48.704;9.000;2024-03-08T12:07:31;8.40;63.30
9083;DHT22;4577;48.704;9.000;2024-03-08T12:10:21;8.00;62.20
9083;DHT22;4577;48.704;9.000;2024-03-08T12:12:56;8.20;62.50
9083;DHT22;4577;48.704;9.000;2024-03-08T12:15:29;8.10;62.00
9083;DHT22;4577;48.704;9.000;2024-03-08T12:17:55;8.40;62.50
9083;DHT22;4577;48.704;9.000;2024-03-08T12:20:26;8.50;63.10
9083;DHT22;4577;48.704;9.000;2024-03-08T12:22:53;8.50;61.60
9083;DHT22;4577;48.704;9.000;2024-03-08T12:27:48;8.30;62.40
9083;DHT22;4577;48.704;9.000;2024-03-08T12:35:23;8.40;60.90
9083;DHT22;4577;48.704;9.000;2024-03-08T12:37:52;8.40;61.80
9083;DHT22;4577;48.704;9.000;2024-03-08T12:40:19;8.60;62.40
9083;DHT22;4577;48.704;9.000;2024-03-08T12:42:47;8.70;62.60
9083;DHT22;4577;48.704;9.000;2024-03-08T12:45:16;8.90;62.50
9083;DHT22;4577;48.704;9.000;2024-03-08T12:50:09;8.80;62.20
9083;DHT22;4577;48.704;9.000;2024-03-08T12:52:35;8.40;61.50
9083;DHT22;4577;48.704;9.000;2024-03-08T12:55:02;8.70;62.40
9083;DHT22;4577;48.704;9.000;2024-03-08T12:57:28;8.80;63.30
9083;DHT22;4577;48.704;9.000;2024-03-08T12:59:54;8.90;61.60
9083;DHT22;4577;48.704;9.000;2024-03-08T13:07:21;9.00;64.10
9083;DHT22;4577;48.704;9.000;2024-03-08T13:09:47;9.10;63.80
9083;DHT22;4577;48.704;9.000;2024-03-08T13:14:41;9.10;63.00
9083;DHT22;4577;48.704;9.000;2024-03-08T13:17:06;9.10;62.30
9083;DHT22;4577;48.704;9.000;2024-03-08T13:19:36;9.30;62.00
9083;DHT22;4577;48.704;9.000;2024-03-08T13:22:04;9.30;62.30
9083;DHT22;4577;48.704;9.000;2024-03-08T13:24:30;9.40;61.30
9083;DHT22;4577;48.704;9.000;2024-03-08T13:26:56;9.30;61.70
9083;DHT22;4577;48.704;9.000;2024-03-08T13:31:48;9.50;62.00
9083;DHT22;4577;48.704;9.000;2024-03-08T13:34:17;9.30;61.60
9083;DHT22;4577;48.704;9.000;2024-03-08T13:36:43;9.40;61.80
9083;DHT22;4577;48.704;9.000;2024-03-08T13:41:41;9.50;61.60
9083;DHT22;4577;48.704;9.000;2024-03-08T13:46:36;9.60;60.50
9083;DHT22;4577;48.704;9.000;2024-03-08T13:49:05;9.60;61.10
9083;DHT22;4577;48.704;9.000;2024-03-08T13:53:59;9.70;60.30
9083;DHT22;4577;48.704;9.000;2024-03-08T13:56:29;9.60;60.40
9083;DHT22;4577;48.704;9.000;2024-03-08T14:06:17;9.50;60.10
9083;DHT22;4577;48.704;9.000;2024-03-08T14:11:08;10.10;58.90
9083;DHT22;4577;48.704;9.000;2024-03-08T14:13:44;9.90;60.00
9083;DHT22;4577;48.704;9.000;2024-03-08T14:16:11;9.90;60.40
9083;DHT22;4577;48.704;9.000;2024-03-08T14:21:04;10.00;59.60
9083;DHT22;4577;48.704;9.000;2024-03-08T14:23:30;10.10;60.40
9083;DHT22;4577;48.704;9.000;2024-03-08T14:28:25;10.00;57.90
9083;DHT22;4577;48.704;9.000;2024-03-08T14:30:53;10.20;59.50
9083;DHT22;4577;48.704;9.000;2024-03-08T14:33:19;10.00;58.40
9083;DHT22;4577;48.704;9.000;2024-03-08T14:35:44;10.30;58.60
9083;DHT22;4577;48.704;9.000;2024-03-08T14:38:12;10.50;58.60
9083;DHT22;4577;48.704;9.000;2024-03-08T14:45:31;10.50;58.80
9083;DHT22;4577;48.704;9.000;2024-03-08T14:47:57;10.60;58.20
9083;DHT22;4577;48.704;9.000;2024-03-08T14:50:24;10.50;57.70
9083;DHT22;4577;48.704;9.000;2024-03-08T14:52:51;10.60;58.10
9083;DHT22;4577;48.704;9.000;2024-03-08T14:55:23;10.60;58.40
9083;DHT22;4577;48.704;9.000;2024-03-08T14:57:49;10.30;57.20
9083;DHT22;4577;48.704;9.000;2024-03-08T15:00:18;10.40;57.70
9083;DHT22;4577;48.704;9.000;2024-03-08T15:02:59;10.50;58.20
9083;DHT22;4577;48.704;9.000;2024-03-08T15:05:25;11.10;57.00
9083;DHT22;4577;48.704;9.000;2024-03-08T15:07:54;11.20;57.30
9083;DHT22;4577;48.704;9.000;2024-03-08T15:10:20;11.20;56.80
9083;DHT22;4577;48.704;9.000;2024-03-08T15:12:48;11.20;57.40
9083;DHT22;4577;48.704;9.000;2024-03-08T15:15:14;11.10;58.00
9083;DHT22;4577;48.704;9.000;2024-03-08T15:17:44;11.00;58.60
9083;DHT22;4577;48.704;9.000;2024-03-08T15:20:15;10.80;56.60
9083;DHT22;4577;48.704;9.000;2024-03-08T15:22:50;10.80;56.30
9083;DHT22;4577;48.704;9.000;2024-03-08T15:25:17;10.70;55.60
9083;DHT22;4577;48.704;9.000;2024-03-08T15:27:49;10.90;56.90
9083;DHT22;4577;48.704;9.000;2024-03-08T15:32:45;11.00;56.20
9083;DHT22;4577;48.704;9.000;2024-03-08T15:35:13;11.20;55.80
9083;DHT22;4577;48.704;9.000;2024-03-08T15:37:42;11.00;55.20
9083;DHT22;4577;48.704;9.000;2024-03-08T15:40:10;10.90;55.80
9083;DHT22;4577;48.704;9.000;2024-03-08T15:42:47;11.00;55.40
9083;DHT22;4577;48.704;9.000;2024-03-08T15:47:41;11.20;55.80
9083;DHT22;4577;48.704;9.000;2024-03-08T15:50:09;11.10;56.40
9083;DHT22;4577;48.704;9.000;2024-03-08T15:52:46;11.00;55.40
9083;DHT22;4577;48.704;9.000;2024-03-08T15:55:16;11.10;55.70
9083;DHT22;4577;48.704;9.000;2024-03-08T15:57:48;11.00;55.70
9083;DHT22;4577;48.704;9.000;2024-03-08T16:00:16;11.00;55.40
9083;DHT22;4577;48.704;9.000;2024-03-08T16:02:59;10.90;56.00
9083;DHT22;4577;48.704;9.000;2024-03-08T16:10:19;10.90;56.20
9083;DHT22;4577;48.704;9.000;2024-03-08T16:15:11;11.00;56.40
9083;DHT22;4577;48.704;9.000;2024-03-08T16:17:37;10.90;57.50
9083;DHT22;4577;48.704;9.000;2024-03-08T16:20:06;11.00;57.60
9083;DHT22;4577;48.704;9.000;2024-03-08T16:22:37;11.00;57.50
9083;DHT22;4577;48.704;9.000;2024-03-08T16:25:05;11.10;57.30
9083;DHT22;4577;48.704;9.000;2024-03-08T16:27:35;11.20;57.70
9083;DHT22;4577;48.704;9.000;2024-03-08T16:30:01;11.00;57.30
9083;DHT22;4577;48.704;9.000;2024-03-08T16:32:34;11.20;57.50
9083;DHT22;4577;48.704;9.000;2024-03-08T16:34:59;11.00;57.50
9083;DHT22;4577;48.704;9.000;2024-03-08T16:37:26;11.20;57.80
9083;DHT22;4577;48.704;9.000;2024-03-08T16:39:55;10.90;57.60
9083;DHT22;4577;48.704;9.000;2024-03-08T16:44:47;10.80;57.70
9083;DHT22;4577;48.704;9.000;2024-03-08T16:47:13;15.60;62.20
9083;DHT22;4577;48.704;9.000;2024-03-08T16:49:42;10.70;57.90
9083;DHT22;4577;48.704;9.000;2024-03-08T16:52:07;10.80;57.90
9083;DHT22;4577;48.704;9.000;2024-03-08T16:57:00;10.60;58.30
9083;DHT22;4577;48.704;9.000;2024-03-08T16:59:28;10.70;58.30
9083;DHT22;4577;48.704;9.000;2024-03-08T17:04:20;10.80;58.30
9083;DHT22;4577;48.704;9.000;2024-03-08T17:06:47;10.80;57.80
9083;DHT22;4577;48.704;9.000;2024-03-08T17:09:14;10.70;58.10
9083;DHT22;4577;48.704;9.000;2024-03-08T17:14:06;10.80;58.10
9083;DHT22;4577;48.704;9.000;2024-03-08T17:16:32;10.50;58.10
9083;DHT22;4577;48.704;9.000;2024-03-08T17:18:58;10.50;58.60
9083;DHT22;4577;48.704;9.000;2024-03-08T17:21:24;10.70;58.30
9083;DHT22;4577;48.704;9.000;2024-03-08T17:23:50;7.00;56.90
9083;DHT22;4577;48.704;9.000;2024-03-08T17:28:43;10.50;58.20
9083;DHT22;4577;48.704;9.000;2024-03-08T17:33:40;10.50;58.30
9083;DHT22;4577;48.704;9.000;2024-03-08T17:36:07;10.40;58.40
9083;DHT22;4577;48.704;9.000;2024-03-08T17:38:39;10.30;58.30
9083;DHT22;4577;48.704;9.000;2024-03-08T17:41:16;10.50;58.40
9083;DHT22;4577;48.704;9.000;2024-03-08T17:43:47;10.40;58.10
9083;DHT22;4577;48.704;9.000;2024-03-08T17:46:13;10.50;58.30
9083;DHT22;4577;48.704;9.000;2024-03-08T17:53:33;10.50;58.60
9083;DHT22;4577;48.704;9.000;2024-03-08T17:56:00;10.60;58.10
9083;DHT22;4577;48.704;9.000;2024-03-08T17:58:25;10.50;58.40
9083;DHT22;4577;48.704;9.000;2024-03-08T18:00:52;10.20;58.70
9083;DHT22;4577;48.704;9.000;2024-03-08T18:03:19;10.20;58.40
9083;DHT22;4577;48.704;9.000;2024-03-08T18:08:13;10.20;58.60
9083;DHT22;4577;48.704;9.000;2024-03-08T18:10:43;10.00;58.30
9083;DHT22;4577;48.704;9.000;2024-03-08T18:18:05;10.20;58.60
9083;DHT22;4577;48.704;9.000;2024-03-08T18:20:37;10.10;58.50
9083;DHT22;4577;48.704;9.000;2024-03-08T18:23:13;10.20;58.30
9083;DHT22;4577;48.704;9.000;2024-03-08T18:25:39;10.00;58.40
9083;DHT22;4577;48.704;9.000;2024-03-08T18:28:05;9.90;59.10
9083;DHT22;4577;48.704;9.000;2024-03-08T18:30:32;10.00;58.10
9083;DHT22;4577;48.704;9.000;2024-03-08T18:32:58;10.00;58.00
9083;DHT22;4577;48.704;9.000;2024-03-08T18:37:50;9.90;58.30
9083;DHT22;4577;48.704;9.000;2024-03-08T18:40:17;9.90;58.30
9083;DHT22;4577;48.704;9.000;2024-03-08T18:42:45;10.10;56.90
9083;DHT22;4577;48.704;9.000;2024-03-08T18:45:12;10.10;56.70
9083;DHT22;4577;48.704;9.000;2024-03-08T18:47:43;10.10;56.40
9083;DHT22;4577;48.704;9.000;2024-03-08T18:50:10;9.90;57.60
9083;DHT22;4577;48.704;9.000;2024-03-08T18:52:42;9.90;57.80
9083;DHT22;4577;48.704;9.000;2024-03-08T18:55:08;9.90;57.10
9083;DHT22;4577;48.704;9.000;2024-03-08T18:57:50;9.80;57.30
9083;DHT22;4577;48.704;9.000;2024-03-08T19:02:54;9.90;56.40
9083;DHT22;4577;48.704;9.000;2024-03-08T19:05:20;9.80;56.90
9083;DHT22;4577;48.704;9.000;2024-03-08T19:07:51;9.80;56.70
9083;DHT22;4577;48.704;9.000;2024-03-08T19:10:18;9.90;55.80
9083;DHT22;4577;48.704;9.000;2024-03-08T19:12:51;10.00;55.00
9083;DHT22;4577;48.704;9.000;2024-03-08T19:15:22;9.80;55.70
9083;DHT22;4577;48.704;9.000;2024-03-08T19:17:49;9.90;55.70
9083;DHT22;4577;48.704;9.000;2024-03-08T19:20:20;9.90;55.30
9083;DHT22;4577;48.704;9.000;2024-03-08T19:22:46;9.40;55.10
9083;DHT22;4577;48.704;9.000;2024-03-08T19:25:15;9.80;55.70
9083;DHT22;4577;48.704;9.000;2024-03-08T19:27:44;9.70;55.70
9083;DHT22;4577;48.704;9.000;2024-03-08T19:30:11;9.70;55.90
9083;DHT22;4577;48.704;9.000;2024-03-08T19:32:41;9.70;55.50
9083;DHT22;4577;48.704;9.000;2024-03-08T19:37:42;9.60;54.70
9083;DHT22;4577;48.704;9.000;2024-03-08T19:40:15;9.70;55.20
9083;DHT22;4577;48.704;9.000;2024-03-08T19:42:46;9.70;55.20
9083;DHT22;4577;48.704;9.000;2024-03-08T19:45:12;9.80;54.80
9083;DHT22;4577;48.704;9.000;2024-03-08T19:47:38;9.70;55.00
9083;DHT22;4577;48.704;9.000;2024-03-08T19:50:11;9.50;55.10
9083;DHT22;4577;48.704;9.000;2024-03-08T19:52:42;9.60;55.00
9083;DHT22;4577;48.704;9.000;2024-03-08T19:55:08;9.60;56.30
9083;DHT22;4577;48.704;9.000;2024-03-08T19:57:36;9.80;55.50
9083;DHT22;4577;48.704;9.000;2024-03-08T20:00:03;9.90;55.30
9083;DHT22;4577;48.704;9.000;2024-03-08T20:02:29;9.70;55.10
9083;DHT22;4577;48.704;9.000;2024-03-08T20:07:22;9.60;55.40
9083;DHT22;4577;48.704;9.000;2024-03-08T20:09:52;9.50;55.80
9083;DHT22;4577;48.704;9.000;2024-03-08T20:19:37;9.40;55.70
9083;DHT22;4577;48.704;9.000;2024-03-08T20:22:04;9.40;55.90
9083;DHT22;4577;48.704;9.000;2024-03-08T20:24:30;9.50;55.70
9083;DHT22;4577;48.704;9.000;2024-03-08T20:34:16;9.30;55.50
9083;DHT22;4577;48.704;9.000;2024-03-08T20:36:43;9.40;55.90
9083;DHT22;4577;48.704;9.000;2024-03-08T20:39:09;9.40;55.30
9083;DHT22;4577;48.704;9.000;2024-03-08T20:44:01;9.40;55.60
9083;DHT22;4577;48.704;9.000;2024-03-08T20:48:56;9.20;55.50
9083;DHT22;4577;48.704;9.000;2024-03-08T20:53:47;9.30;56.00